Aeroporto :
LOGIN :

Iscrizione | Disclaimer

   EN    FR    IT 

 










Sommario :    VFR   VFR Marginale   IFR   IFR Intensivo   IFR Molto Intensivo
Visibilità : 
Base nubi : 
>= 8 km
>= 3000ft
5 / 8 km
1000 / 3000 ft
1500m / 5 km
500 / 1000 ft
800 / 1500m
200 / 500 ft
< 800m
< 200 ft
Simboli :   Temporali  Nebbia  Neve Forte  Precipitazioni Forti  Vento > 20 kt
SIGMETs :   Varie  Temporali  Ghiacco  Turbolenza  Onda orograficha  Ceneri Vulcaniche






- Altitudine del aeroporto : 132 ft


EGXE - RAF Leeming

ULTIMO METAR :
  • 061024Z 23016KT 9999 FEW018 12/08 Q0995 NOSIG RMK BLU BLU

METARs OBSOLETI :
  • 060950Z 23019KT 9999 BKN020 12/09 Q0995 TEMPO 7000 SHRA RMK WHT TEMPO WHT
  • 060920Z 21013KT 9999 BKN020 12/10 Q0995 NOSIG RMK WHT WHT
  • 060850Z 22015KT 9999 BKN018 BKN045 12/10 Q0996 NOSIG RMK WHT WHT
  • 060750Z 19013KT 9999 FEW010 BKN018 BKN045 12/10 Q0996 RMK WHT

TAF TAF EGXE
Valido dal 06 a 09 ore il 06 a 18 ore UTC


060721Z 0609/0618 20012KT 9999 FEW020
TEMPO 0609/0618 SCT020
BECMG 0610/0613 26012KT
PROB40
TEMPO 0610/0615 26015G26KT 6000 SHRA SCT020TCU



MetMap, La meteo Aeronautica in un colpo d'occhio ! - Copyright ORBIFLY Dicembre 2007 - Disclaimer

ORBIFLY MET'MAP TEAM :

Programmazione e sviluppo : Alexandra Zaïnal
Concezione : Baudouin d'Aumeries
Aiuto per la programmazione : Marc-Olivier Méhu
Supporto tecnico e logistico : Manuel Goepfert
Aiuto per la traduzione : Arnaldo La Scala

Contatto : metmap@orbifly.com




FONTI E CREDITI :

   NOAA